Time;durP1;ratioP1;P1;durP2;ratioP2;P2;SDS_P1;SDS_P2;PMS_P1;PMS_P2;Temp;Humidity;BMP_temperature;BMP_pressure;BME280_temperature;BME280_humidity;BME280_pressure;Samples;Min_cycle;Max_cycle;Signal;HPM_P1;HPM_P2
2022/07/28 00:01:06;;;;;;;;;;;19.90;99.90;;;;;;4128185;28;19925;-55
2022/07/28 00:03:09;;;;;;;;;;;20.00;99.90;;;;;;4128799;28;20413;-56
2022/07/28 00:05:11;;;;;;;;;;;19.90;99.90;;;;;;4114166;28;20318;-57
2022/07/28 00:07:12;;;;;;;;;;;19.80;99.90;;;;;;4117503;28;20374;-55
2022/07/28 00:09:14;;;;;;;;;;;19.80;99.90;;;;;;4129762;28;20334;-56
2022/07/28 00:11:17;;;;;;;;;;;19.70;99.90;;;;;;4131498;28;19972;-56
2022/07/28 00:13:19;;;;;;;;;;;19.60;99.90;;;;;;4131537;28;20258;-55
2022/07/28 00:15:21;;;;;;;;;;;19.60;99.90;;;;;;4130256;28;19929;-55
2022/07/28 00:17:23;;;;;;;;;;;19.70;99.90;;;;;;4140803;28;19928;-56
2022/07/28 00:19:25;;;;;;;;;;;19.80;99.90;;;;;;4130188;28;19961;-55
2022/07/28 00:21:27;;;;;;;;;;;19.80;99.90;;;;;;4131642;28;19925;-56
2022/07/28 00:23:29;;;;;;;;;;;19.80;99.90;;;;;;4123558;28;20017;-54
2022/07/28 00:25:36;;;;;;;;;;;19.60;99.90;;;;;;4129875;28;20206;-56
2022/07/28 00:27:38;;;;;;;;;;;19.60;99.90;;;;;;4128957;28;19925;-55
2022/07/28 00:29:40;;;;;;;;;;;19.50;99.90;;;;;;4125459;28;19929;-56
2022/07/28 00:31:51;;;;;;;;;;;19.50;99.90;;;;;;4129474;28;19922;-55
2022/07/28 00:33:53;;;;;;;;;;;19.40;99.90;;;;;;4128157;28;19929;-56
2022/07/28 00:35:55;;;;;;;;;;;19.30;99.90;;;;;;4126676;28;19984;-54
2022/07/28 00:37:58;;;;;;;;;;;19.30;99.90;;;;;;4115040;28;19926;-56
2022/07/28 00:40:01;;;;;;;;;;;19.20;99.90;;;;;;4127082;28;19952;-55
2022/07/28 00:42:03;;;;;;;;;;;19.30;99.90;;;;;;4128337;28;19922;-55
2022/07/28 00:44:06;;;;;;;;;;;19.30;99.90;;;;;;4125719;28;19932;-55
2022/07/28 00:46:08;;;;;;;;;;;19.40;99.90;;;;;;4131093;28;19921;-55
2022/07/28 00:48:11;;;;;;;;;;;19.30;99.90;;;;;;4130126;28;19929;-55
2022/07/28 00:50:14;;;;;;;;;;;19.20;99.90;;;;;;4123524;28;19921;-57
2022/07/28 00:52:17;;;;;;;;;;;19.20;99.90;;;;;;4130739;28;19956;-55
2022/07/28 00:54:19;;;;;;;;;;;19.30;99.90;;;;;;4131359;28;19926;-54
2022/07/28 00:56:21;;;;;;;;;;;19.20;99.90;;;;;;4121952;28;19922;-55
2022/07/28 00:58:25;;;;;;;;;;;19.30;99.90;;;;;;4129737;28;19921;-55
2022/07/28 01:00:27;;;;;;;;;;;19.20;99.90;;;;;;4131058;28;20475;-55
2022/07/28 01:02:28;;;;;;;;;;;19.10;99.90;;;;;;4117482;28;19925;-55
2022/07/28 01:04:31;;;;;;;;;;;19.10;99.90;;;;;;4118583;28;20348;-55
2022/07/28 01:06:57;;;;;;;;;;;19.00;99.90;;;;;;4130793;28;19932;-56
2022/07/28 01:09:08;;;;;;;;;;;19.00;99.90;;;;;;4128851;28;19976;-54
2022/07/28 01:11:28;;;;;;;;;;;19.00;99.90;;;;;;4128112;28;20361;-55
2022/07/28 01:13:30;;;;;;;;;;;19.00;99.90;;;;;;4130729;28;19981;-55
2022/07/28 01:15:39;;;;;;;;;;;18.90;99.90;;;;;;4130696;28;19922;-54
2022/07/28 01:17:52;;;;;;;;;;;18.90;99.90;;;;;;4129588;28;19922;-55
2022/07/28 01:20:02;;;;;;;;;;;18.90;99.90;;;;;;4130527;28;19921;-56
2022/07/28 01:22:06;;;;;;;;;;;18.90;99.90;;;;;;4114618;28;19984;-55
2022/07/28 01:24:25;;;;;;;;;;;19.00;99.90;;;;;;4121988;28;19949;-54
2022/07/28 01:26:53;;;;;;;;;;;18.90;99.90;;;;;;4129617;28;20288;-55
2022/07/28 01:29:22;;;;;;;;;;;18.90;99.90;;;;;;4114098;28;20237;-54
2022/07/28 01:31:24;;;;;;;;;;;18.90;99.90;;;;;;4113126;28;19922;-55
2022/07/28 01:33:37;;;;;;;;;;;18.80;99.90;;;;;;4120067;28;19926;-54
2022/07/28 01:35:44;;;;;;;;;;;18.70;99.90;;;;;;4130581;28;19928;-54
2022/07/28 01:37:47;;;;;;;;;;;18.70;99.90;;;;;;4115735;28;19926;-53
2022/07/28 01:39:52;;;;;;;;;;;18.80;99.90;;;;;;4118994;28;19961;-55
2022/07/28 01:41:54;;;;;;;;;;;18.90;99.90;;;;;;4130227;28;19926;-55
2022/07/28 01:44:01;;;;;;;;;;;19.00;99.90;;;;;;4125741;28;19976;-54
2022/07/28 01:46:04;;;;;;;;;;;18.90;99.90;;;;;;4130357;28;19999;-54
2022/07/28 01:48:07;;;;;;;;;;;18.80;99.90;;;;;;4130254;28;20004;-55
2022/07/28 01:50:11;;;;;;;;;;;18.90;99.90;;;;;;4126035;28;19972;-56
2022/07/28 01:52:14;;;;;;;;;;;19.00;99.90;;;;;;4127517;28;20091;-55
2022/07/28 01:54:17;;;;;;;;;;;18.90;99.90;;;;;;4112856;28;19933;-55
2022/07/28 01:56:20;;;;;;;;;;;19.00;99.90;;;;;;4112895;28;20386;-54
2022/07/28 01:58:24;;;;;;;;;;;18.90;99.90;;;;;;4114078;28;19922;-55
2022/07/28 02:00:26;;;;;;;;;;;18.80;99.90;;;;;;4112762;28;20425;-54
2022/07/28 02:02:30;;;;;;;;;;;18.80;99.90;;;;;;4113870;28;20290;-55
2022/07/28 02:04:32;;;;;;;;;;;18.50;99.90;;;;;;4113882;28;19926;-54
2022/07/28 02:06:35;;;;;;;;;;;18.50;99.90;;;;;;4114178;28;20398;-55
2022/07/28 02:08:38;;;;;;;;;;;18.40;99.90;;;;;;4127503;28;19922;-54
2022/07/28 02:10:41;;;;;;;;;;;18.50;99.90;;;;;;4128788;28;19949;-55
2022/07/28 02:12:44;;;;;;;;;;;18.40;99.90;;;;;;4114052;28;19926;-53
2022/07/28 02:14:47;;;;;;;;;;;18.30;99.90;;;;;;4113787;28;19936;-55
2022/07/28 02:17:09;;;;;;;;;;;18.30;99.90;;;;;;4113811;28;20268;-55
2022/07/28 02:19:12;;;;;;;;;;;18.40;99.90;;;;;;4128208;28;19961;-54
2022/07/28 02:21:14;;;;;;;;;;;18.40;99.90;;;;;;4113739;28;19965;-54
2022/07/28 02:23:17;;;;;;;;;;;18.50;99.90;;;;;;4113780;28;20383;-54
2022/07/28 02:25:20;;;;;;;;;;;18.50;99.90;;;;;;4113803;28;19968;-54
2022/07/28 02:27:25;;;;;;;;;;;18.40;99.90;;;;;;4114058;28;20021;-54
2022/07/28 02:29:30;;;;;;;;;;;18.30;99.90;;;;;;4113741;28;20386;-54
2022/07/28 02:32:00;;;;;;;;;;;18.30;99.90;;;;;;4113159;28;20024;-54
2022/07/28 02:34:03;;;;;;;;;;;18.30;99.90;;;;;;4113295;28;20009;-54
2022/07/28 02:36:08;;;;;;;;;;;18.20;99.90;;;;;;4113656;28;19933;-54
2022/07/28 02:38:12;;;;;;;;;;;18.10;99.90;;;;;;4113309;28;19922;-54
2022/07/28 02:40:15;;;;;;;;;;;18.10;99.90;;;;;;4113223;28;19922;-54
2022/07/28 02:42:18;;;;;;;;;;;18.00;99.90;;;;;;4113448;28;20329;-55
2022/07/28 02:44:24;;;;;;;;;;;17.90;99.90;;;;;;4125761;28;20365;-55
2022/07/28 02:46:31;;;;;;;;;;;17.90;99.90;;;;;;4129465;28;19980;-54
2022/07/28 02:48:35;;;;;;;;;;;17.90;99.90;;;;;;4129598;28;19968;-54
2022/07/28 02:50:39;;;;;;;;;;;17.90;99.90;;;;;;4129042;28;19979;-54
2022/07/28 02:52:42;;;;;;;;;;;17.90;99.90;;;;;;4129102;28;19925;-55
2022/07/28 02:54:45;;;;;;;;;;;17.90;99.90;;;;;;4126913;28;20012;-54
2022/07/28 02:56:49;;;;;;;;;;;17.90;99.90;;;;;;4113293;28;19930;-54
2022/07/28 02:58:55;;;;;;;;;;;17.90;99.90;;;;;;4122770;28;19932;-53
2022/07/28 03:00:57;;;;;;;;;;;17.90;99.90;;;;;;4128633;28;20128;-54
2022/07/28 03:02:59;;;;;;;;;;;17.90;99.90;;;;;;4112996;28;19934;-54
2022/07/28 03:05:02;;;;;;;;;;;17.90;99.90;;;;;;4120706;28;20129;-54
2022/07/28 03:07:04;;;;;;;;;;;17.90;99.90;;;;;;4129143;28;19922;-54
2022/07/28 03:09:09;;;;;;;;;;;17.90;99.90;;;;;;4127763;28;19949;-54
2022/07/28 03:11:13;;;;;;;;;;;18.00;99.90;;;;;;4126996;28;19961;-54
2022/07/28 03:13:15;;;;;;;;;;;17.90;99.90;;;;;;4129019;28;20016;-55
2022/07/28 03:15:17;;;;;;;;;;;18.00;99.90;;;;;;4128912;28;20381;-56
2022/07/28 03:17:19;;;;;;;;;;;18.00;99.90;;;;;;4128778;28;20032;-54
2022/07/28 03:19:21;;;;;;;;;;;18.00;99.90;;;;;;4128854;28;19925;-54
2022/07/28 03:21:23;;;;;;;;;;;18.00;99.90;;;;;;4129105;28;20025;-55
2022/07/28 03:23:46;;;;;;;;;;;18.00;99.90;;;;;;4127155;28;20004;-54
2022/07/28 03:25:50;;;;;;;;;;;17.90;99.90;;;;;;4112822;28;19957;-53
2022/07/28 03:27:53;;;;;;;;;;;17.90;99.90;;;;;;4124733;28;19926;-54
2022/07/28 03:29:57;;;;;;;;;;;17.80;99.90;;;;;;4126054;28;19933;-54
2022/07/28 03:32:04;;;;;;;;;;;17.80;99.90;;;;;;4112766;28;20410;-54
2022/07/28 03:34:06;;;;;;;;;;;17.90;99.90;;;;;;4121712;28;19922;-56
2022/07/28 03:36:11;;;;;;;;;;;17.90;99.90;;;;;;4127369;28;19929;-55
2022/07/28 03:38:17;;;;;;;;;;;17.90;99.90;;;;;;4112601;28;20428;-54
2022/07/28 03:40:20;;;;;;;;;;;17.80;99.90;;;;;;4121458;28;19926;-55
2022/07/28 03:42:23;;;;;;;;;;;17.80;99.90;;;;;;4128202;28;19922;-55
2022/07/28 03:44:25;;;;;;;;;;;17.80;99.90;;;;;;4125208;28;20302;-54
2022/07/28 03:46:28;;;;;;;;;;;17.80;99.90;;;;;;4127203;28;20435;-55
2022/07/28 03:48:31;;;;;;;;;;;17.80;99.90;;;;;;4128974;28;19988;-53
2022/07/28 03:50:33;;;;;;;;;;;17.80;99.90;;;;;;4128320;28;19922;-54
2022/07/28 03:52:35;;;;;;;;;;;17.80;99.90;;;;;;4128558;28;19965;-54
2022/07/28 03:54:37;;;;;;;;;;;17.80;99.90;;;;;;4128239;28;20532;-54
2022/07/28 03:56:39;;;;;;;;;;;17.70;99.90;;;;;;4116119;28;20359;-54
2022/07/28 03:58:41;;;;;;;;;;;17.80;99.90;;;;;;4115557;28;20314;-55
2022/07/28 04:00:43;;;;;;;;;;;17.80;99.90;;;;;;4128348;28;20554;-54
2022/07/28 04:02:45;;;;;;;;;;;17.70;99.90;;;;;;4118555;28;20177;-54
2022/07/28 04:04:47;;;;;;;;;;;17.60;99.90;;;;;;4113493;28;19973;-54
2022/07/28 04:06:49;;;;;;;;;;;17.60;99.90;;;;;;4128851;28;19926;-54
2022/07/28 04:08:51;;;;;;;;;;;17.50;99.90;;;;;;4127819;28;20308;-54
2022/07/28 04:10:53;;;;;;;;;;;17.50;99.90;;;;;;4126318;28;19932;-53
2022/07/28 04:12:57;;;;;;;;;;;17.40;99.90;;;;;;4128444;28;20270;-54
2022/07/28 04:15:00;;;;;;;;;;;17.40;99.90;;;;;;4122239;28;19987;-54
2022/07/28 04:17:02;;;;;;;;;;;17.40;99.90;;;;;;4127941;28;20012;-53
2022/07/28 04:19:04;;;;;;;;;;;17.40;99.90;;;;;;4128092;28;20021;-54
2022/07/28 04:21:06;;;;;;;;;;;17.40;99.90;;;;;;4124433;28;20337;-55
2022/07/28 04:23:08;;;;;;;;;;;17.40;99.90;;;;;;4112668;28;19956;-54
2022/07/28 04:25:11;;;;;;;;;;;17.40;99.90;;;;;;4122822;28;20279;-56
2022/07/28 04:27:14;;;;;;;;;;;17.40;99.90;;;;;;4125776;28;20143;-55
2022/07/28 04:29:17;;;;;;;;;;;17.30;99.90;;;;;;4128070;28;20025;-54
2022/07/28 04:31:24;;;;;;;;;;;17.30;99.90;;;;;;4133469;28;19922;-55
2022/07/28 04:33:25;;;;;;;;;;;17.20;99.90;;;;;;4127776;28;19926;-54
2022/07/28 04:35:27;;;;;;;;;;;17.20;99.90;;;;;;4112346;28;19976;-54
2022/07/28 04:37:29;;;;;;;;;;;17.20;99.90;;;;;;4119654;28;19929;-55
2022/07/28 04:39:34;;;;;;;;;;;17.20;99.90;;;;;;4128186;28;19932;-54
2022/07/28 04:41:36;;;;;;;;;;;17.30;99.90;;;;;;4111828;28;20314;-53
2022/07/28 04:43:38;;;;;;;;;;;17.30;99.90;;;;;;4119073;28;19972;-55
2022/07/28 04:45:40;;;;;;;;;;;17.30;99.90;;;;;;4127981;28;20428;-55
2022/07/28 04:47:54;;;;;;;;;;;17.30;99.90;;;;;;4128123;28;19952;-54
2022/07/28 04:49:56;;;;;;;;;;;17.30;99.90;;;;;;4128103;28;19922;-55
2022/07/28 04:51:58;;;;;;;;;;;17.40;99.90;;;;;;4127889;28;20286;-55
2022/07/28 04:54:00;;;;;;;;;;;17.50;99.90;;;;;;4116214;28;20349;-53
2022/07/28 04:56:02;;;;;;;;;;;17.50;99.90;;;;;;4115510;28;19934;-55
2022/07/28 04:58:04;;;;;;;;;;;17.50;99.90;;;;;;4130886;28;19975;-54
2022/07/28 05:00:11;;;;;;;;;;;17.50;99.90;;;;;;4121406;28;20446;-55
2022/07/28 05:02:13;;;;;;;;;;;17.60;99.90;;;;;;4114944;28;19926;-55
2022/07/28 05:04:15;;;;;;;;;;;17.60;99.90;;;;;;4114746;28;20390;-54
2022/07/28 05:06:18;;;;;;;;;;;17.60;99.90;;;;;;4123205;28;19929;-53
2022/07/28 05:08:20;;;;;;;;;;;17.60;99.90;;;;;;4130489;28;20301;-54
2022/07/28 05:10:22;;;;;;;;;;;17.70;99.90;;;;;;4130692;28;19944;-54
2022/07/28 05:12:24;;;;;;;;;;;17.60;99.90;;;;;;4130515;28;20377;-54
2022/07/28 05:14:26;;;;;;;;;;;17.60;99.90;;;;;;4129342;28;19926;-54
2022/07/28 05:16:28;;;;;;;;;;;17.70;99.90;;;;;;4117798;28;20021;-55
2022/07/28 05:18:30;;;;;;;;;;;17.80;99.90;;;;;;4127465;28;19957;-55
2022/07/28 05:20:32;;;;;;;;;;;17.80;99.90;;;;;;4130948;28;19922;-55
2022/07/28 05:22:41;;;;;;;;;;;17.80;99.90;;;;;;4119732;28;19933;-54
2022/07/28 05:24:43;;;;;;;;;;;17.80;99.90;;;;;;4116671;28;20326;-55
2022/07/28 05:26:45;;;;;;;;;;;17.80;99.90;;;;;;4130972;28;19921;-55
2022/07/28 05:28:47;;;;;;;;;;;17.80;99.90;;;;;;4120947;28;20314;-55
2022/07/28 05:30:49;;;;;;;;;;;17.90;99.90;;;;;;4114502;28;19977;-54
2022/07/28 05:32:52;;;;;;;;;;;18.00;99.90;;;;;;4130341;28;19922;-55
2022/07/28 05:34:54;;;;;;;;;;;18.00;99.90;;;;;;4123201;28;19933;-56
2022/07/28 05:36:56;;;;;;;;;;;18.00;99.90;;;;;;4113653;28;19922;-55
2022/07/28 05:38:58;;;;;;;;;;;18.00;99.90;;;;;;4128447;28;19929;-55
2022/07/28 05:41:00;;;;;;;;;;;18.10;99.90;;;;;;4128533;28;19932;-54
2022/07/28 05:43:02;;;;;;;;;;;18.10;99.90;;;;;;4130253;28;20302;-54
2022/07/28 05:45:04;;;;;;;;;;;18.10;99.90;;;;;;4130499;28;19926;-55
2022/07/28 05:47:17;;;;;;;;;;;18.10;99.90;;;;;;4119796;28;19922;-54
2022/07/28 05:49:20;;;;;;;;;;;18.10;99.90;;;;;;4115586;28;19922;-54
2022/07/28 05:51:23;;;;;;;;;;;18.20;99.90;;;;;;4130087;28;20278;-54
2022/07/28 05:53:25;;;;;;;;;;;18.20;99.90;;;;;;4127806;28;19933;-55
2022/07/28 05:55:27;;;;;;;;;;;18.30;99.90;;;;;;4114143;28;19922;-54
2022/07/28 05:57:29;;;;;;;;;;;18.40;99.90;;;;;;4123441;28;19921;-55
2022/07/28 05:59:31;;;;;;;;;;;18.50;99.90;;;;;;4130080;28;19925;-55
2022/07/28 06:01:37;;;;;;;;;;;18.60;99.90;;;;;;4114170;28;20310;-56
2022/07/28 06:03:39;;;;;;;;;;;18.70;99.90;;;;;;4117971;28;19947;-55
2022/07/28 06:05:43;;;;;;;;;;;18.90;99.90;;;;;;4116422;28;19922;-55
2022/07/28 06:08:05;;;;;;;;;;;19.20;99.90;;;;;;4123257;28;19921;-54
2022/07/28 06:10:07;;;;;;;;;;;19.50;99.90;;;;;;4129850;28;19925;-55
2022/07/28 06:12:09;;;;;;;;;;;19.40;99.90;;;;;;4129791;28;20282;-55
2022/07/28 06:14:11;;;;;;;;;;;19.40;99.90;;;;;;4129734;28;19926;-55
2022/07/28 06:16:13;;;;;;;;;;;19.50;99.90;;;;;;4123871;28;19965;-56
2022/07/28 06:18:15;;;;;;;;;;;19.60;99.90;;;;;;4121987;28;20523;-55
2022/07/28 06:20:18;;;;;;;;;;;19.50;99.90;;;;;;4127704;28;19956;-56
2022/07/28 06:22:19;;;;;;;;;;;19.60;99.90;;;;;;4118449;28;19973;-54
2022/07/28 06:24:21;;;;;;;;;;;19.60;99.90;;;;;;4122463;28;19922;-56
2022/07/28 06:26:23;;;;;;;;;;;19.70;99.90;;;;;;4124039;28;20297;-56
2022/07/28 06:28:25;;;;;;;;;;;19.90;99.90;;;;;;4125678;28;19921;-55
2022/07/28 06:30:27;;;;;;;;;;;19.90;99.90;;;;;;4119169;28;20005;-55
2022/07/28 06:32:29;;;;;;;;;;;19.90;99.90;;;;;;4120598;28;20297;-55
2022/07/28 06:34:31;;;;;;;;;;;19.90;99.90;;;;;;4115210;28;19926;-56
2022/07/28 06:36:33;;;;;;;;;;;20.00;99.90;;;;;;4114083;28;19957;-56
2022/07/28 06:38:36;;;;;;;;;;;20.10;99.90;;;;;;4123355;28;20397;-56
2022/07/28 06:40:38;;;;;;;;;;;20.20;99.90;;;;;;4122381;28;19965;-56
2022/07/28 06:42:40;;;;;;;;;;;20.30;99.90;;;;;;4126877;28;20389;-57
2022/07/28 06:44:42;;;;;;;;;;;20.70;99.90;;;;;;4125822;28;20861;-56
2022/07/28 06:46:59;;;;;;;;;;;20.80;99.90;;;;;;4124565;28;19948;-56
2022/07/28 06:49:02;;;;;;;;;;;20.80;99.90;;;;;;4121439;28;20024;-56
2022/07/28 06:51:04;;;;;;;;;;;20.90;99.90;;;;;;4117671;28;19984;-55
2022/07/28 06:53:06;;;;;;;;;;;21.00;99.90;;;;;;4127399;28;19929;-56
2022/07/28 06:55:08;;;;;;;;;;;21.20;99.90;;;;;;4117816;28;20305;-56
2022/07/28 06:57:12;;;;;;;;;;;21.40;99.90;;;;;;4115205;28;19922;-57
2022/07/28 06:59:14;;;;;;;;;;;21.50;99.90;;;;;;4128949;28;19926;-56
2022/07/28 07:01:16;;;;;;;;;;;21.70;99.90;;;;;;4119909;28;19966;-56
2022/07/28 07:03:19;;;;;;;;;;;22.00;99.90;;;;;;4112981;28;20025;-57
2022/07/28 07:05:21;;;;;;;;;;;22.20;99.90;;;;;;4129883;28;19949;-57
2022/07/28 07:07:25;;;;;;;;;;;22.30;99.90;;;;;;4125441;28;19957;-57
2022/07/28 07:09:27;;;;;;;;;;;22.30;99.90;;;;;;4128959;28;19921;-55
2022/07/28 07:11:28;;;;;;;;;;;22.40;99.90;;;;;;4128914;28;20032;-56
2022/07/28 07:13:31;;;;;;;;;;;22.60;99.90;;;;;;4128546;28;19931;-55
2022/07/28 07:15:33;;;;;;;;;;;22.50;99.90;;;;;;4129090;28;19925;-55
2022/07/28 07:17:40;;;;;;;;;;;22.60;99.90;;;;;;4121938;28;19926;-55
2022/07/28 07:19:42;;;;;;;;;;;22.60;99.90;;;;;;4128121;28;19925;-55
2022/07/28 07:21:44;;;;;;;;;;;22.80;99.90;;;;;;4129141;28;19929;-55
2022/07/28 07:23:47;;;;;;;;;;;22.90;99.90;;;;;;4118031;28;19921;-55
2022/07/28 07:25:49;;;;;;;;;;;23.20;99.90;;;;;;4114240;28;19930;-55
2022/07/28 07:27:51;;;;;;;;;;;23.90;99.90;;;;;;4129212;28;19932;-57
2022/07/28 07:29:53;;;;;;;;;;;24.10;99.90;;;;;;4120314;28;19922;-55
2022/07/28 07:31:57;;;;;;;;;;;24.10;99.90;;;;;;4113039;28;20190;-56
2022/07/28 07:33:59;;;;;;;;;;;24.20;99.90;;;;;;4127924;28;19932;-55
2022/07/28 07:36:01;;;;;;;;;;;24.40;99.90;;;;;;4128815;28;19968;-57
2022/07/28 07:38:03;;;;;;;;;;;24.50;99.90;;;;;;4129227;28;19961;-56
2022/07/28 07:40:05;;;;;;;;;;;24.40;99.90;;;;;;4115183;28;19926;-56
2022/07/28 07:42:08;;;;;;;;;;;24.70;99.90;;;;;;4116718;28;19922;-55
2022/07/28 07:44:09;;;;;;;;;;;24.60;99.90;;;;;;4128507;28;20047;-55
2022/07/28 07:46:12;;;;;;;;;;;24.60;99.90;;;;;;4128626;28;20201;-55
2022/07/28 07:48:14;;;;;;;;;;;24.80;99.90;;;;;;4126679;28;19926;-56
2022/07/28 07:50:15;;;;;;;;;;;25.00;99.90;;;;;;4121615;28;19929;-56
2022/07/28 07:52:17;;;;;;;;;;;25.10;99.90;;;;;;4128278;28;19929;-56
2022/07/28 07:54:20;;;;;;;;;;;25.10;99.90;;;;;;4128993;28;20382;-56
2022/07/28 07:56:22;;;;;;;;;;;25.10;99.90;;;;;;4112531;28;20407;-56
2022/07/28 07:58:24;;;;;;;;;;;25.20;99.90;;;;;;4119182;28;19968;-56
2022/07/28 08:00:26;;;;;;;;;;;25.40;99.90;;;;;;4127170;28;19922;-55
2022/07/28 08:02:29;;;;;;;;;;;25.50;99.90;;;;;;4113995;28;19926;-55
2022/07/28 08:04:31;;;;;;;;;;;25.60;99.90;;;;;;4116054;28;19926;-56
2022/07/28 08:06:38;;;;;;;;;;;26.00;99.90;;;;;;4125773;28;19936;-57
2022/07/28 08:08:41;;;;;;;;;;;26.20;99.90;;;;;;4124879;28;20308;-56
2022/07/28 08:10:49;;;;;;;;;;;26.40;99.90;;;;;;4118856;28;19930;-55
2022/07/28 08:12:52;;;;;;;;;;;26.50;99.90;;;;;;4121048;28;19926;-57
2022/07/28 08:14:54;;;;;;;;;;;26.70;99.90;;;;;;4122006;28;20043;-56
2022/07/28 08:16:57;;;;;;;;;;;26.90;99.90;;;;;;4125122;28;20013;-56
2022/07/28 08:19:00;;;;;;;;;;;27.00;99.90;;;;;;4122372;28;19950;-56
2022/07/28 08:21:02;;;;;;;;;;;27.10;99.90;;;;;;4121952;28;20343;-57
2022/07/28 08:23:04;;;;;;;;;;;27.40;99.90;;;;;;4121947;28;19976;-56
2022/07/28 08:25:06;;;;;;;;;;;27.50;99.90;;;;;;4119647;28;20076;-57
2022/07/28 08:27:08;;;;;;;;;;;27.60;99.90;;;;;;4117727;28;19928;-55
2022/07/28 08:29:10;;;;;;;;;;;28.00;99.90;;;;;;4117570;28;19926;-56
2022/07/28 08:31:12;;;;;;;;;;;28.10;99.90;;;;;;4121609;28;20305;-57
2022/07/28 08:33:14;;;;;;;;;;;28.50;99.90;;;;;;4122957;28;20415;-56
2022/07/28 08:35:16;;;;;;;;;;;28.30;99.90;;;;;;4124243;28;19977;-54
2022/07/28 08:37:34;;;;;;;;;;;28.30;99.90;;;;;;4121607;28;19925;-55
2022/07/28 08:39:36;;;;;;;;;;;28.60;99.90;;;;;;4137800;28;19926;-56
2022/07/28 08:41:45;;;;;;;;;;;28.60;99.90;;;;;;4113810;28;19929;-55
2022/07/28 08:43:48;;;;;;;;;;;28.50;99.90;;;;;;4131946;28;19922;-56
2022/07/28 08:45:51;;;;;;;;;;;28.90;99.90;;;;;;4143643;28;19922;-56
2022/07/28 08:47:59;;;;;;;;;;;29.10;99.90;;;;;;4133484;28;19929;-55
2022/07/28 08:50:11;;;;;;;;;;;29.20;99.90;;;;;;4128095;28;20548;-56
2022/07/28 08:52:14;;;;;;;;;;;29.30;99.90;;;;;;4130050;28;19944;-55
2022/07/28 08:54:19;;;;;;;;;;;29.20;99.90;;;;;;4123121;28;19964;-56
2022/07/28 08:56:21;;;;;;;;;;;29.40;99.90;;;;;;4118744;28;19961;-56
2022/07/28 08:58:23;;;;;;;;;;;29.60;99.90;;;;;;4116841;28;19926;-58
2022/07/28 09:00:25;;;;;;;;;;;30.10;99.90;;;;;;4130436;28;19950;-57
2022/07/28 09:02:28;;;;;;;;;;;30.00;99.90;;;;;;4126939;28;20389;-56
2022/07/28 09:04:33;;;;;;;;;;;29.80;99.90;;;;;;4125296;28;20010;-56
2022/07/28 09:06:40;;;;;;;;;;;30.00;99.90;;;;;;4123292;28;19977;-56
2022/07/28 09:08:42;;;;;;;;;;;30.20;99.90;;;;;;4128838;28;20417;-55
2022/07/28 09:10:45;;;;;;;;;;;30.20;99.90;;;;;;4120839;28;19976;-56
2022/07/28 09:12:47;;;;;;;;;;;30.10;99.90;;;;;;4122037;28;20016;-56
2022/07/28 09:14:49;;;;;;;;;;;29.90;99.30;;;;;;4122941;28;19922;-56
2022/07/28 09:16:51;;;;;;;;;;;30.00;99.90;;;;;;4115329;28;20012;-57
2022/07/28 09:18:53;;;;;;;;;;;30.10;99.90;;;;;;4116859;28;19933;-56
2022/07/28 09:20:55;;;;;;;;;;;30.30;98.60;;;;;;4118944;28;19949;-56
2022/07/28 09:23:01;;;;;;;;;;;30.50;98.40;;;;;;4124067;28;20338;-57
2022/07/28 09:25:03;;;;;;;;;;;30.50;97.40;;;;;;4114718;28;19926;-56
2022/07/28 09:27:08;;;;;;;;;;;30.40;99.10;;;;;;4116444;28;20481;-55
2022/07/28 09:29:10;;;;;;;;;;;30.70;97.80;;;;;;4121620;28;19922;-56
2022/07/28 09:31:13;;;;;;;;;;;30.80;98.30;;;;;;4124540;28;19949;-55
2022/07/28 09:33:17;;;;;;;;;;;30.80;97.80;;;;;;4126342;28;19930;-57
2022/07/28 09:35:43;;;;;;;;;;;31.00;97.20;;;;;;4124786;28;19969;-56
2022/07/28 09:37:57;;;;;;;;;;;31.30;97.00;;;;;;4130567;28;19929;-57
2022/07/28 09:40:08;;;;;;;;;;;30.90;95.30;;;;;;4122532;28;19961;-55
2022/07/28 09:42:11;;;;;;;;;;;30.90;95.30;;;;;;4124668;28;20281;-56
2022/07/28 09:44:19;;;;;;;;;;;31.40;96.10;;;;;;4123462;28;19926;-56
2022/07/28 09:46:23;;;;;;;;;;;31.40;96.00;;;;;;4121775;28;19937;-57
2022/07/28 09:48:25;;;;;;;;;;;31.30;96.20;;;;;;4120174;28;19932;-56
2022/07/28 09:50:29;;;;;;;;;;;31.50;94.20;;;;;;4123786;28;19941;-56
2022/07/28 09:52:31;;;;;;;;;;;31.50;93.80;;;;;;4122958;28;20401;-56
2022/07/28 09:54:32;;;;;;;;;;;31.60;94.70;;;;;;4114590;28;20263;-56
2022/07/28 09:56:40;;;;;;;;;;;31.60;93.90;;;;;;4119248;28;19926;-56
2022/07/28 09:58:51;;;;;;;;;;;31.50;94.40;;;;;;4114522;28;20302;-56
2022/07/28 10:01:21;;;;;;;;;;;31.80;93.00;;;;;;4114876;28;20373;-55
2022/07/28 10:03:24;;;;;;;;;;;32.00;94.00;;;;;;4139062;28;19933;-56
2022/07/28 10:05:53;;;;;;;;;;;32.10;93.10;;;;;;4143539;28;20350;-55
2022/07/28 10:07:55;;;;;;;;;;;32.30;93.60;;;;;;4128061;28;19925;-57
2022/07/28 10:10:03;;;;;;;;;;;32.50;94.50;;;;;;4115787;28;19972;-56
2022/07/28 10:12:14;;;;;;;;;;;32.70;93.10;;;;;;4121768;28;20009;-56
2022/07/28 10:14:20;;;;;;;;;;;32.30;92.10;;;;;;4114058;28;19922;-57
2022/07/28 10:16:22;;;;;;;;;;;32.10;93.40;;;;;;4126657;28;19921;-56
2022/07/28 10:18:24;;;;;;;;;;;32.20;93.00;;;;;;4116942;28;19922;-57
2022/07/28 10:20:27;;;;;;;;;;;32.40;92.20;;;;;;4113818;28;19929;-56
2022/07/28 10:22:32;;;;;;;;;;;32.50;91.80;;;;;;4124277;28;20341;-57
2022/07/28 10:24:36;;;;;;;;;;;32.50;90.90;;;;;;4132365;28;19932;-55
2022/07/28 10:26:41;;;;;;;;;;;32.70;90.80;;;;;;4140174;28;19921;-56
2022/07/28 10:28:48;;;;;;;;;;;32.80;90.20;;;;;;4122853;28;19933;-55
2022/07/28 10:30:54;;;;;;;;;;;32.80;90.50;;;;;;4142290;28;19929;-58
2022/07/28 10:32:58;;;;;;;;;;;32.80;90.80;;;;;;4117864;28;20028;-56
2022/07/28 10:35:02;;;;;;;;;;;33.10;90.80;;;;;;4120326;28;20013;-56
2022/07/28 10:37:08;;;;;;;;;;;32.70;91.20;;;;;;4116865;28;20423;-57
2022/07/28 10:39:17;;;;;;;;;;;33.00;92.20;;;;;;4117813;28;19930;-56
2022/07/28 10:41:20;;;;;;;;;;;33.00;91.80;;;;;;4125655;28;20363;-57
2022/07/28 10:43:22;;;;;;;;;;;32.80;90.40;;;;;;4124870;28;19932;-57
2022/07/28 10:45:25;;;;;;;;;;;32.70;93.00;;;;;;4125796;28;20008;-56
2022/07/28 10:47:47;;;;;;;;;;;32.80;90.60;;;;;;4125362;28;19930;-55
2022/07/28 10:49:50;;;;;;;;;;;32.60;91.60;;;;;;4128324;28;19936;-56
2022/07/28 10:51:52;;;;;;;;;;;32.50;89.20;;;;;;4125950;28;19930;-56
2022/07/28 10:54:19;;;;;;;;;;;31.70;88.50;;;;;;4122638;28;20274;-56
2022/07/28 10:56:37;;;;;;;;;;;31.70;92.50;;;;;;4126784;28;19925;-57
2022/07/28 10:58:39;;;;;;;;;;;32.50;91.40;;;;;;4126292;28;20345;-56
2022/07/28 11:00:50;;;;;;;;;;;33.00;90.30;;;;;;4124937;28;19972;-56
2022/07/28 11:03:00;;;;;;;;;;;33.00;90.10;;;;;;4125736;28;20378;-56
2022/07/28 11:05:03;;;;;;;;;;;33.60;92.20;;;;;;4144122;28;19976;-56
2022/07/28 11:07:09;;;;;;;;;;;33.70;92.70;;;;;;4119690;28;19930;-57
2022/07/28 11:09:14;;;;;;;;;;;33.80;89.10;;;;;;4128911;28;19957;-57
2022/07/28 11:11:35;;;;;;;;;;;33.90;87.80;;;;;;4129229;28;19922;-58
2022/07/28 11:13:39;;;;;;;;;;;34.00;85.80;;;;;;4135420;28;19925;-57
2022/07/28 11:15:43;;;;;;;;;;;33.90;86.40;;;;;;4117605;28;20369;-56
2022/07/28 11:17:55;;;;;;;;;;;34.20;90.50;;;;;;4118559;28;20001;-57
2022/07/28 11:19:57;;;;;;;;;;;34.60;84.20;;;;;;4127935;28;19952;-56
2022/07/28 11:22:26;;;;;;;;;;;34.50;85.20;;;;;;4124064;28;19929;-55
2022/07/28 11:24:48;;;;;;;;;;;34.30;84.20;;;;;;4124591;28;19922;-56
2022/07/28 11:26:53;;;;;;;;;;;34.00;88.20;;;;;;4127761;28;19945;-56
2022/07/28 11:29:09;;;;;;;;;;;34.20;86.40;;;;;;4124093;28;20207;-56
2022/07/28 11:31:11;;;;;;;;;;;34.10;85.30;;;;;;4127690;28;19929;-57
2022/07/28 11:33:13;;;;;;;;;;;34.40;86.40;;;;;;4123580;28;20450;-56
2022/07/28 11:35:16;;;;;;;;;;;34.50;86.70;;;;;;4122719;28;20283;-57
2022/07/28 11:37:18;;;;;;;;;;;34.30;85.20;;;;;;4113000;28;20370;-57
2022/07/28 11:39:24;;;;;;;;;;;34.00;86.80;;;;;;4112689;28;20350;-57
2022/07/28 11:41:29;;;;;;;;;;;34.10;83.90;;;;;;4122431;28;19922;-54
2022/07/28 11:43:32;;;;;;;;;;;33.90;85.20;;;;;;4117113;28;19984;-55
2022/07/28 11:45:37;;;;;;;;;;;33.80;84.80;;;;;;4124985;28;20362;-56
2022/07/28 11:47:42;;;;;;;;;;;34.00;86.10;;;;;;4125048;28;20008;-55
2022/07/28 11:49:45;;;;;;;;;;;34.40;88.00;;;;;;4116865;28;20385;-55
2022/07/28 11:52:06;;;;;;;;;;;34.40;83.80;;;;;;4127255;28;19928;-55
2022/07/28 11:54:15;;;;;;;;;;;34.40;81.90;;;;;;4124374;28;19972;-54
2022/07/28 11:56:23;;;;;;;;;;;34.60;82.10;;;;;;4112696;28;19922;-55
2022/07/28 11:58:25;;;;;;;;;;;34.50;81.50;;;;;;4139412;28;20370;-55
2022/07/28 12:00:28;;;;;;;;;;;34.70;83.50;;;;;;4124594;28;19922;-54
2022/07/28 12:02:31;;;;;;;;;;;34.90;80.20;;;;;;4125796;28;19925;-55
2022/07/28 12:04:33;;;;;;;;;;;35.00;77.10;;;;;;4126757;28;19925;-55